Time;durP1;ratioP1;P1;durP2;ratioP2;P2;SDS_P1;SDS_P2;PMS_P1;PMS_P2;Temp;Humidity;BMP_temperature;BMP_pressure;BME280_temperature;BME280_humidity;BME280_pressure;Samples;Min_cycle;Max_cycle;Signal;HPM_P1;HPM_P2
2023/11/28 00:01:15;;;;;;;3.17;1.50;;;2.60;99.90;;;;;;5059627;28;20037;-67
2023/11/28 00:03:47;;;;;;;2.45;1.40;;;2.60;99.90;;;;;;5039285;28;20295;-66
2023/11/28 00:06:19;;;;;;;3.25;1.52;;;2.60;99.90;;;;;;5040735;28;20032;-66
2023/11/28 00:08:51;;;;;;;2.38;1.33;;;2.60;99.90;;;;;;5054358;28;20472;-66
2023/11/28 00:11:23;;;;;;;1.85;1.52;;;2.60;99.90;;;;;;5051521;28;20045;-67
2023/11/28 00:13:55;;;;;;;2.13;1.60;;;2.60;99.90;;;;;;5056839;28;20049;-66
2023/11/28 00:16:27;;;;;;;5.22;1.70;;;2.60;99.90;;;;;;5053721;28;20051;-67
2023/11/28 00:18:59;;;;;;;1.67;1.50;;;2.60;99.90;;;;;;5058257;28;20056;-67
2023/11/28 00:21:31;;;;;;;1.63;1.45;;;2.70;99.90;;;;;;5051195;28;20404;-67
2023/11/28 00:24:03;;;;;;;1.60;1.40;;;2.70;99.90;;;;;;5061152;28;20045;-67
2023/11/28 00:26:35;;;;;;;2.17;1.80;;;2.70;99.90;;;;;;5045140;28;20377;-67
2023/11/28 00:29:08;;;;;;;2.05;1.67;;;2.70;99.90;;;;;;5029452;28;20068;-67
2023/11/28 00:31:41;;;;;;;1.85;1.60;;;2.70;99.90;;;;;;5053329;28;20428;-67
2023/11/28 00:34:13;;;;;;;2.03;1.40;;;2.70;99.90;;;;;;5027381;28;20036;-71
2023/11/28 00:36:45;;;;;;;1.70;1.27;;;2.70;99.90;;;;;;5053247;28;20048;-66
2023/11/28 00:39:17;;;;;;;1.80;1.60;;;2.80;99.90;;;;;;5043402;28;20513;-67
2023/11/28 00:41:49;;;;;;;1.83;1.58;;;2.80;99.90;;;;;;5029634;28;20037;-67
2023/11/28 00:44:21;;;;;;;1.90;1.70;;;2.80;99.90;;;;;;5019994;28;20535;-67
2023/11/28 00:46:53;;;;;;;2.20;1.80;;;2.80;99.90;;;;;;5037593;28;20041;-66
2023/11/28 00:49:26;;;;;;;2.20;1.65;;;2.80;99.90;;;;;;5055439;28;20052;-67
2023/11/28 00:51:58;;;;;;;1.95;1.75;;;2.90;99.90;;;;;;5040563;28;20045;-67
2023/11/28 00:54:30;;;;;;;2.47;1.77;;;2.90;99.90;;;;;;5033176;28;20049;-67
2023/11/28 00:57:03;;;;;;;1.63;1.40;;;2.90;99.90;;;;;;5039767;28;20110;-66
2023/11/28 00:59:38;;;;;;;2.13;1.77;;;3.00;99.90;;;;;;5041651;28;20048;-67
2023/11/28 01:02:10;;;;;;;2.25;1.83;;;3.00;99.90;;;;;;5046104;28;20043;-67
2023/11/28 01:04:42;;;;;;;2.15;1.65;;;3.00;99.90;;;;;;5036171;28;20417;-66
2023/11/28 01:07:15;;;;;;;1.83;1.63;;;3.00;99.90;;;;;;5039415;28;20047;-65
2023/11/28 01:09:41;;;;;;;2.10;1.70;;;3.00;99.90;;;;;;5062193;28;20067;-67
2023/11/28 01:12:13;;;;;;;1.98;1.35;;;3.00;99.90;;;;;;5023021;28;20053;-67
2023/11/28 01:14:45;;;;;;;1.90;1.60;;;3.00;99.90;;;;;;5019369;28;20437;-67
2023/11/28 01:17:17;;;;;;;2.15;1.50;;;3.10;99.90;;;;;;5021168;28;20048;-67
2023/11/28 01:19:49;;;;;;;2.67;2.35;;;3.10;99.90;;;;;;5059818;28;20536;-67
2023/11/28 01:22:21;;;;;;;2.13;1.60;;;3.10;99.90;;;;;;5038578;28;20094;-67
2023/11/28 01:24:54;;;;;;;1.88;1.65;;;3.10;99.90;;;;;;5041300;28;20037;-66
2023/11/28 01:27:26;;;;;;;1.67;1.30;;;3.10;99.90;;;;;;5039757;28;20047;-66
2023/11/28 01:29:58;;;;;;;2.00;1.45;;;3.20;99.90;;;;;;5043104;28;20509;-66
2023/11/28 01:32:30;;;;;;;2.15;1.58;;;3.20;99.90;;;;;;5033649;28;20049;-67
2023/11/28 01:35:02;;;;;;;1.95;1.45;;;3.20;99.90;;;;;;5037757;28;20045;-67
2023/11/28 01:37:35;;;;;;;2.75;1.20;;;3.10;99.90;;;;;;5039364;28;20048;-67
2023/11/28 01:40:03;;;;;;;1.75;1.40;;;3.10;99.90;;;;;;5037474;28;20087;-66
2023/11/28 01:42:35;;;;;;;1.33;1.13;;;3.10;99.90;;;;;;5049840;28;20051;-66
2023/11/28 01:45:09;;;;;;;2.55;1.30;;;3.10;99.90;;;;;;5044196;28;20044;-67
2023/11/28 01:47:41;;;;;;;1.55;1.17;;;3.10;99.90;;;;;;5053188;28;20037;-67
2023/11/28 01:50:13;;;;;;;1.40;1.10;;;3.10;99.90;;;;;;5033983;28;20053;-67
2023/11/28 01:52:40;;;;;;;1.73;1.25;;;3.10;99.90;;;;;;5037840;28;20048;-67
2023/11/28 01:55:12;;;;;;;2.22;1.67;;;3.10;99.90;;;;;;5041126;28;20078;-66
2023/11/28 01:57:44;;;;;;;2.20;1.45;;;3.10;99.90;;;;;;5045754;28;20049;-67
2023/11/28 02:00:17;;;;;;;1.50;1.38;;;3.10;99.90;;;;;;5041555;28;20066;-66
2023/11/28 02:02:43;;;;;;;2.03;1.52;;;3.10;99.90;;;;;;5041705;28;20474;-67
2023/11/28 02:05:16;;;;;;;2.05;1.65;;;3.20;99.90;;;;;;5055931;28;20036;-67
2023/11/28 02:07:49;;;;;;;1.85;1.42;;;3.20;99.90;;;;;;5038871;28;20041;-67
2023/11/28 02:10:23;;;;;;;2.05;1.60;;;3.20;99.90;;;;;;5048726;28;20056;-67
2023/11/28 02:12:55;;;;;;;1.52;1.17;;;3.20;99.90;;;;;;5051008;28;20420;-67
2023/11/28 02:15:41;;;;;;;1.45;1.23;;;3.20;99.90;;;;;;5052186;28;20057;-67
2023/11/28 02:18:14;;;;;;;1.42;1.10;;;3.20;99.90;;;;;;5046420;28;20432;-66
2023/11/28 02:20:46;;;;;;;1.48;1.25;;;3.20;99.90;;;;;;5050090;28;20835;-66
2023/11/28 02:23:18;;;;;;;1.50;1.20;;;3.20;99.90;;;;;;5049819;28;20498;-66
2023/11/28 02:25:50;;;;;;;1.23;0.90;;;3.20;99.90;;;;;;5039135;28;20459;-66
2023/11/28 02:28:21;;;;;;;1.23;1.10;;;3.20;99.90;;;;;;5040562;28;20151;-67
2023/11/28 02:30:58;;;;;;;1.60;1.17;;;3.20;99.90;;;;;;5042572;28;20052;-66
2023/11/28 02:33:30;;;;;;;1.27;1.08;;;3.10;99.90;;;;;;5027428;28;20119;-67
2023/11/28 02:35:57;;;;;;;1.30;1.20;;;3.20;99.90;;;;;;5036089;28;20045;-67
2023/11/28 02:38:29;;;;;;;1.45;1.15;;;3.20;99.90;;;;;;5038539;28;20079;-67
2023/11/28 02:41:01;;;;;;;1.83;1.50;;;3.20;99.90;;;;;;5036588;28;20041;-66
2023/11/28 02:43:33;;;;;;;1.60;1.40;;;3.20;99.90;;;;;;5011563;28;20106;-67
2023/11/28 02:46:05;;;;;;;1.17;1.08;;;3.20;99.90;;;;;;5033302;28;20056;-67
2023/11/28 02:48:40;;;;;;;1.80;1.50;;;3.20;99.90;;;;;;5028142;28;20032;-67
2023/11/28 02:51:16;;;;;;;1.58;1.30;;;3.20;99.90;;;;;;5017032;28;20041;-67
2023/11/28 02:53:48;;;;;;;1.65;1.52;;;3.20;99.90;;;;;;5043217;28;20532;-67
2023/11/28 02:56:19;;;;;;;2.00;1.50;;;3.30;99.90;;;;;;5029897;28;20048;-66
2023/11/28 02:58:53;;;;;;;2.15;1.88;;;3.30;99.90;;;;;;5053303;28;20481;-67
2023/11/28 03:01:25;;;;;;;2.00;1.67;;;3.30;99.90;;;;;;5041461;28;20123;-67
2023/11/28 03:03:57;;;;;;;2.78;2.20;;;3.30;99.90;;;;;;5042828;28;20049;-67
2023/11/28 03:06:29;;;;;;;1.67;1.58;;;3.30;99.90;;;;;;5044162;28;20045;-67
2023/11/28 03:09:00;;;;;;;2.13;1.85;;;3.30;99.90;;;;;;5046357;28;20036;-67
2023/11/28 03:11:37;;;;;;;2.03;1.67;;;3.40;99.90;;;;;;5048001;28;20053;-67
2023/11/28 03:14:09;;;;;;;1.73;1.50;;;3.40;99.90;;;;;;5015763;28;20060;-67
2023/11/28 03:16:41;;;;;;;2.85;1.95;;;3.40;99.90;;;;;;5011245;28;20046;-67
2023/11/28 03:19:09;;;;;;;1.95;1.75;;;3.40;99.90;;;;;;5032868;28;20657;-67
2023/11/28 03:21:41;;;;;;;1.55;1.45;;;3.40;99.90;;;;;;5034504;28;20044;-67
2023/11/28 03:24:13;;;;;;;2.45;1.70;;;3.40;99.90;;;;;;5050682;28;20147;-67
2023/11/28 03:26:45;;;;;;;1.52;1.38;;;3.40;99.90;;;;;;5030924;28;20110;-67
2023/11/28 03:29:18;;;;;;;1.42;1.33;;;3.50;99.90;;;;;;5045104;28;20523;-67
2023/11/28 03:31:50;;;;;;;1.65;1.25;;;3.50;99.90;;;;;;5025835;28;20083;-67
2023/11/28 03:34:21;;;;;;;1.92;1.50;;;3.50;99.90;;;;;;5040629;28;20048;-67
2023/11/28 03:36:53;;;;;;;2.10;1.60;;;3.50;99.90;;;;;;5061765;28;20052;-67
2023/11/28 03:39:25;;;;;;;1.95;1.50;;;3.50;99.90;;;;;;5042633;28;20059;-67
2023/11/28 03:41:57;;;;;;;1.90;1.73;;;3.50;99.90;;;;;;5011829;28;20124;-66
2023/11/28 03:44:29;;;;;;;2.28;1.50;;;3.50;99.90;;;;;;5041521;28;20041;-66
2023/11/28 03:47:01;;;;;;;2.50;1.80;;;3.50;99.90;;;;;;5059986;28;20052;-67
2023/11/28 03:49:33;;;;;;;2.65;2.10;;;3.50;99.90;;;;;;5066447;28;20063;-67
2023/11/28 03:52:05;;;;;;;1.90;1.50;;;3.50;99.90;;;;;;5060798;28;20036;-67
2023/11/28 03:54:37;;;;;;;1.83;1.50;;;3.50;99.90;;;;;;5048043;28;20060;-67
2023/11/28 03:57:13;;;;;;;2.42;1.80;;;3.60;99.90;;;;;;5046926;28;20664;-67
2023/11/28 03:59:46;;;;;;;1.90;1.58;;;3.60;99.90;;;;;;5031869;28;20523;-66
2023/11/28 04:02:17;;;;;;;2.17;1.70;;;3.60;99.90;;;;;;5040248;28;20690;-67
2023/11/28 04:04:49;;;;;;;2.72;1.88;;;3.60;99.90;;;;;;5039480;28;20052;-67
2023/11/28 04:07:21;;;;;;;2.60;1.70;;;3.60;99.90;;;;;;5040099;28;20040;-67
2023/11/28 04:09:53;;;;;;;2.00;1.63;;;3.60;99.90;;;;;;5060218;28;20040;-67
2023/11/28 04:12:25;;;;;;;2.78;1.90;;;3.60;99.90;;;;;;5034172;28;20056;-66
2023/11/28 04:14:57;;;;;;;2.10;1.90;;;3.60;99.90;;;;;;5036323;28;20505;-67
2023/11/28 04:17:24;;;;;;;2.25;2.05;;;3.60;99.90;;;;;;5037178;28;20127;-67
2023/11/28 04:19:56;;;;;;;2.05;1.83;;;3.60;99.90;;;;;;5072089;28;20386;-66
2023/11/28 04:22:28;;;;;;;2.50;1.90;;;3.60;99.90;;;;;;5072085;28;20055;-66
2023/11/28 04:25:00;;;;;;;2.05;1.63;;;3.60;99.90;;;;;;5052680;28;20390;-66
2023/11/28 04:27:32;;;;;;;2.63;2.03;;;3.60;99.90;;;;;;5030876;28;20041;-66
2023/11/28 04:30:06;;;;;;;2.13;1.55;;;3.60;99.90;;;;;;5025029;28;20047;-66
2023/11/28 04:32:38;;;;;;;2.20;1.83;;;3.60;99.90;;;;;;5043954;28;20410;-66
2023/11/28 04:35:11;;;;;;;2.08;1.73;;;3.60;99.90;;;;;;5041412;28;20064;-66
2023/11/28 04:37:44;;;;;;;2.13;1.80;;;3.60;99.90;;;;;;5044348;28;20045;-66
2023/11/28 04:40:11;;;;;;;2.35;1.23;;;3.60;99.90;;;;;;5043693;28;20040;-66
2023/11/28 04:42:39;;;;;;;1.80;1.40;;;3.60;99.90;;;;;;5049692;28;20404;-67
2023/11/28 04:45:11;;;;;;;1.70;1.52;;;3.60;99.90;;;;;;5028985;28;20036;-67
2023/11/28 04:47:43;;;;;;;1.80;1.35;;;3.60;99.90;;;;;;5027975;28;20527;-67
2023/11/28 04:50:15;;;;;;;1.35;1.05;;;3.60;99.90;;;;;;5030303;28;20047;-66
2023/11/28 04:52:42;;;;;;;1.50;1.30;;;3.60;99.90;;;;;;5036153;28;20099;-67
2023/11/28 04:55:14;;;;;;;1.65;1.30;;;3.60;99.90;;;;;;5041963;28;20072;-66
2023/11/28 04:57:46;;;;;;;1.40;1.05;;;3.60;99.90;;;;;;5039117;28;20068;-66
2023/11/28 05:00:19;;;;;;;1.75;1.30;;;3.60;99.90;;;;;;5042525;28;20037;-66
2023/11/28 05:02:50;;;;;;;1.42;1.10;;;3.60;99.90;;;;;;5055363;28;20041;-66
2023/11/28 05:05:17;;;;;;;1.63;1.10;;;3.50;99.90;;;;;;5042046;28;20037;-66
2023/11/28 05:07:50;;;;;;;1.30;1.20;;;3.50;99.90;;;;;;5027899;28;20823;-66
2023/11/28 05:10:22;;;;;;;1.27;0.95;;;3.50;99.90;;;;;;5023143;28;20094;-66
2023/11/28 05:12:54;;;;;;;1.10;0.90;;;3.50;99.90;;;;;;5024273;28;20103;-67
2023/11/28 05:15:26;;;;;;;1.50;0.98;;;3.60;99.90;;;;;;5035678;28;20491;-66
2023/11/28 05:17:58;;;;;;;1.05;0.80;;;3.60;99.90;;;;;;5030531;28;20049;-66
2023/11/28 05:20:25;;;;;;;1.05;0.82;;;3.60;99.90;;;;;;5020469;28;20044;-66
2023/11/28 05:22:57;;;;;;;1.35;1.25;;;3.60;99.90;;;;;;5058018;28;20041;-66
2023/11/28 05:25:24;;;;;;;1.23;1.00;;;3.60;99.90;;;;;;5047091;28;20037;-66
2023/11/28 05:27:58;;;;;;;1.10;1.00;;;3.60;99.90;;;;;;5038514;28;20033;-66
2023/11/28 05:30:30;;;;;;;1.38;0.98;;;3.60;99.90;;;;;;5039575;28;20071;-66
2023/11/28 05:33:02;;;;;;;1.30;1.00;;;3.70;99.90;;;;;;5039176;28;20049;-66
2023/11/28 05:35:34;;;;;;;1.10;1.00;;;3.70;99.90;;;;;;5045372;28;20592;-67
2023/11/28 05:38:07;;;;;;;1.00;0.82;;;3.70;99.90;;;;;;5043146;28;20045;-67
2023/11/28 05:40:41;;;;;;;1.20;1.00;;;3.70;99.90;;;;;;5038265;28;20096;-67
2023/11/28 05:43:13;;;;;;;1.10;1.00;;;3.70;99.90;;;;;;5019131;28;20547;-66
2023/11/28 05:45:41;;;;;;;1.08;0.90;;;3.70;99.90;;;;;;5039965;28;20028;-66
2023/11/28 05:48:13;;;;;;;1.27;0.93;;;3.80;99.90;;;;;;5059453;28;20037;-66
2023/11/28 05:50:45;;;;;;;1.10;1.00;;;3.80;99.90;;;;;;5035908;28;20037;-67
2023/11/28 05:53:19;;;;;;;1.45;1.10;;;3.80;99.90;;;;;;5051924;28;20083;-66
2023/11/28 05:55:46;;;;;;;0.88;0.80;;;3.80;99.90;;;;;;5033425;28;20051;-67
2023/11/28 05:58:14;;;;;;;1.67;1.17;;;3.80;99.90;;;;;;5037310;28;20626;-66
2023/11/28 06:00:46;;;;;;;1.52;1.27;;;3.80;99.90;;;;;;5020924;28;20042;-66
2023/11/28 06:03:18;;;;;;;1.70;0.93;;;3.80;99.90;;;;;;5027516;28;20513;-66
2023/11/28 06:05:50;;;;;;;1.45;1.20;;;3.80;99.90;;;;;;5045509;28;20076;-67
2023/11/28 06:08:17;;;;;;;1.23;0.93;;;3.90;99.90;;;;;;5027300;28;20441;-66
2023/11/28 06:10:50;;;;;;;1.48;1.08;;;3.90;99.90;;;;;;5027119;28;20048;-66
2023/11/28 06:13:22;;;;;;;1.30;0.82;;;3.90;99.90;;;;;;5030746;28;20040;-66
2023/11/28 06:15:54;;;;;;;1.02;0.77;;;3.90;99.90;;;;;;5066270;28;20049;-66
2023/11/28 06:18:27;;;;;;;0.98;0.70;;;4.00;99.90;;;;;;5044964;28;20059;-67
2023/11/28 06:20:58;;;;;;;1.38;0.80;;;4.00;99.90;;;;;;5036455;28;20033;-67
2023/11/28 06:23:31;;;;;;;0.80;0.75;;;4.00;99.90;;;;;;5033927;28;20095;-66
2023/11/28 06:26:03;;;;;;;1.02;0.63;;;4.00;99.90;;;;;;5035608;28;20033;-67
2023/11/28 06:28:30;;;;;;;1.40;0.80;;;4.00;99.90;;;;;;5036222;28;20119;-66
2023/11/28 06:31:03;;;;;;;0.98;0.85;;;4.00;99.90;;;;;;5058035;28;20148;-66
2023/11/28 06:33:35;;;;;;;1.00;0.70;;;4.10;99.90;;;;;;5063894;28;20068;-66
2023/11/28 06:36:03;;;;;;;1.58;0.70;;;4.10;99.90;;;;;;5045678;28;20037;-66
2023/11/28 06:38:35;;;;;;;0.90;0.75;;;4.10;99.90;;;;;;5043920;28;20044;-66
2023/11/28 06:41:07;;;;;;;1.10;0.80;;;4.10;99.90;;;;;;5060318;28;20041;-66
2023/11/28 06:43:39;;;;;;;0.82;0.60;;;4.10;99.90;;;;;;5058950;28;20052;-66
2023/11/28 06:46:13;;;;;;;1.08;0.75;;;4.10;99.90;;;;;;5057642;28;20040;-66
2023/11/28 06:48:45;;;;;;;1.85;0.90;;;4.10;99.90;;;;;;5065850;28;20037;-66
2023/11/28 06:51:16;;;;;;;1.00;0.90;;;4.10;99.90;;;;;;5030604;28;20055;-66
2023/11/28 06:53:48;;;;;;;0.95;0.70;;;4.20;99.90;;;;;;5028587;28;20047;-65
2023/11/28 06:56:20;;;;;;;2.10;0.77;;;4.20;99.90;;;;;;5017766;28;20125;-65
2023/11/28 06:58:52;;;;;;;2.85;1.25;;;4.10;99.90;;;;;;5035446;28;20084;-66
2023/11/28 07:01:24;;;;;;;6.10;4.50;;;4.10;99.90;;;;;;5054522;28;20409;-65
2023/11/28 07:03:56;;;;;;;1.10;0.98;;;4.10;99.90;;;;;;5039015;28;20057;-65
2023/11/28 07:06:23;;;;;;;1.52;0.80;;;4.10;99.90;;;;;;5057465;28;20095;-65
2023/11/28 07:08:55;;;;;;;0.77;0.63;;;4.10;99.90;;;;;;5057425;28;20517;-65
2023/11/28 07:11:33;;;;;;;1.98;0.70;;;4.20;99.90;;;;;;5041329;28;20056;-66
2023/11/28 07:14:00;;;;;;;3.33;1.05;;;4.10;99.90;;;;;;5056961;28;20044;-66
2023/11/28 07:16:34;;;;;;;3.50;1.30;;;4.10;99.90;;;;;;5056529;28;20539;-66
2023/11/28 07:19:01;;;;;;;1.08;0.88;;;4.10;99.90;;;;;;5064599;28;20036;-66
2023/11/28 07:21:28;;;;;;;1.23;1.00;;;4.20;99.90;;;;;;5049800;28;20488;-66
2023/11/28 07:23:55;;;;;;;1.85;1.30;;;4.10;99.90;;;;;;5047868;28;20029;-66
2023/11/28 07:26:27;;;;;;;1.70;1.35;;;4.20;99.90;;;;;;5035675;28;20045;-66
2023/11/28 07:29:00;;;;;;;1.90;1.63;;;4.20;99.90;;;;;;5052058;28;20051;-66
2023/11/28 07:31:28;;;;;;;1.33;0.85;;;4.20;99.90;;;;;;5064170;28;20132;-66
2023/11/28 07:34:00;;;;;;;3.05;2.17;;;4.20;99.90;;;;;;5020859;28;20041;-66
2023/11/28 07:36:32;;;;;;;1.60;1.48;;;4.20;99.90;;;;;;5040268;28;20056;-66
2023/11/28 07:39:04;;;;;;;1.77;1.40;;;4.20;99.90;;;;;;5043914;28;20050;-66
2023/11/28 07:41:31;;;;;;;1.85;1.38;;;4.10;99.90;;;;;;5037926;28;20547;-66
2023/11/28 07:44:03;;;;;;;2.05;1.20;;;4.10;99.90;;;;;;5058535;28;20043;-66
2023/11/28 07:46:35;;;;;;;3.28;2.17;;;4.10;99.90;;;;;;5031978;28;20064;-66
2023/11/28 07:49:06;;;;;;;0.90;0.70;;;4.20;99.90;;;;;;5048349;28;20029;-66
2023/11/28 07:51:33;;;;;;;0.70;0.50;;;4.20;99.90;;;;;;5070581;28;20058;-66
2023/11/28 07:54:00;;;;;;;1.02;0.70;;;4.20;99.90;;;;;;5050234;28;20037;-66
2023/11/28 07:56:27;;;;;;;1.00;0.60;;;4.20;99.90;;;;;;5048703;28;20036;-67
2023/11/28 07:58:59;;;;;;;1.15;0.80;;;4.20;99.90;;;;;;5048339;28;20053;-66
2023/11/28 08:01:31;;;;;;;0.70;0.60;;;4.20;99.90;;;;;;5056630;28;20041;-66
2023/11/28 08:03:58;;;;;;;0.70;0.70;;;4.20;99.90;;;;;;5057703;28;20045;-66
2023/11/28 08:06:30;;;;;;;0.88;0.60;;;4.20;99.90;;;;;;5062922;28;20131;-66
2023/11/28 08:09:07;;;;;;;1.33;0.85;;;4.10;99.90;;;;;;5032181;28;20119;-66
2023/11/28 08:11:39;;;;;;;1.00;0.80;;;4.10;99.90;;;;;;5062989;28;20044;-66
2023/11/28 08:14:07;;;;;;;2.25;0.70;;;4.10;99.90;;;;;;5062311;28;21096;-66
2023/11/28 08:16:39;;;;;;;0.93;0.70;;;4.10;99.90;;;;;;5047946;28;20068;-66
2023/11/28 08:19:11;;;;;;;0.77;0.68;;;4.10;99.90;;;;;;5039685;28;20531;-66
2023/11/28 08:21:43;;;;;;;2.78;1.02;;;4.10;99.90;;;;;;5039725;28;20052;-66
2023/11/28 08:24:15;;;;;;;1.38;0.90;;;4.10;99.90;;;;;;5058618;28;20408;-66
2023/11/28 08:26:47;;;;;;;1.13;0.90;;;4.00;99.90;;;;;;5033860;28;20057;-66
2023/11/28 08:29:19;;;;;;;0.98;0.75;;;4.00;99.90;;;;;;5036336;28;20412;-66
2023/11/28 08:31:51;;;;;;;1.33;1.00;;;4.00;99.90;;;;;;5038795;28;20055;-66
2023/11/28 08:34:23;;;;;;;3.30;1.55;;;4.00;99.90;;;;;;5044250;28;20504;-66
2023/11/28 08:36:55;;;;;;;0.55;0.50;;;4.00;99.90;;;;;;5033655;28;20044;-66
2023/11/28 08:39:26;;;;;;;1.20;0.70;;;4.00;99.90;;;;;;5045063;28;20059;-66
2023/11/28 08:41:59;;;;;;;1.73;0.82;;;3.90;99.90;;;;;;5062258;28;20033;-66
2023/11/28 08:44:32;;;;;;;2.97;1.95;;;3.70;99.90;;;;;;5062319;28;20040;-66
2023/11/28 08:46:59;;;;;;;0.90;0.55;;;3.60;99.90;;;;;;5064955;28;20042;-66
2023/11/28 08:49:31;;;;;;;1.27;0.73;;;3.50;99.90;;;;;;5048076;28;20111;-66
2023/11/28 08:52:03;;;;;;;1.60;0.85;;;3.50;99.90;;;;;;5065699;28;20049;-66
2023/11/28 08:54:35;;;;;;;1.00;0.75;;;3.50;99.90;;;;;;5047580;28;20056;-66
2023/11/28 08:57:06;;;;;;;1.40;0.90;;;3.50;99.90;;;;;;5053984;28;20041;-66
2023/11/28 08:59:33;;;;;;;1.35;0.82;;;3.40;99.90;;;;;;5034814;28;20124;-66
2023/11/28 09:02:00;;;;;;;2.65;1.40;;;3.40;99.90;;;;;;5053684;28;20047;-66
2023/11/28 09:04:32;;;;;;;2.17;0.88;;;3.40;99.90;;;;;;5050265;28;20048;-66
2023/11/28 09:06:59;;;;;;;1.95;1.17;;;3.40;99.90;;;;;;5040277;28;20053;-66
2023/11/28 09:09:26;;;;;;;0.90;0.80;;;3.40;99.90;;;;;;5060592;28;20151;-66
2023/11/28 09:11:58;;;;;;;1.55;1.10;;;3.40;99.90;;;;;;5043965;28;20414;-66
2023/11/28 09:14:30;;;;;;;1.15;0.90;;;3.40;99.90;;;;;;5042893;28;20053;-66
2023/11/28 09:16:57;;;;;;;4.82;1.30;;;3.40;99.90;;;;;;5060737;28;20041;-66
2023/11/28 09:19:29;;;;;;;1.48;0.80;;;3.30;99.90;;;;;;5047296;28;20528;-66
2023/11/28 09:22:01;;;;;;;0.88;0.80;;;3.20;99.90;;;;;;5067268;28;20037;-66
2023/11/28 09:24:33;;;;;;;1.23;0.93;;;3.20;99.90;;;;;;5031840;28;20423;-66
2023/11/28 09:27:00;;;;;;;1.75;0.80;;;3.10;99.90;;;;;;5054211;28;20052;-66
2023/11/28 09:29:34;;;;;;;1.23;0.75;;;3.00;99.90;;;;;;5035191;28;20055;-66
2023/11/28 09:32:02;;;;;;;0.77;0.70;;;2.90;99.90;;;;;;5050323;28;20036;-66
2023/11/28 09:34:34;;;;;;;1.10;0.80;;;2.80;99.90;;;;;;5035501;28;20049;-66
2023/11/28 09:37:06;;;;;;;2.22;0.70;;;2.70;99.90;;;;;;5056821;28;20412;-66
2023/11/28 09:39:32;;;;;;;0.82;0.70;;;2.70;99.90;;;;;;5063708;28;20047;-66
2023/11/28 09:42:10;;;;;;;0.75;0.57;;;2.80;99.90;;;;;;5040797;28;20045;-66
2023/11/28 09:44:40;;;;;;;0.90;0.60;;;2.70;99.90;;;;;;5059513;28;20107;-66
2023/11/28 09:47:15;;;;;;;1.02;0.80;;;2.60;99.90;;;;;;5040734;28;20297;-66
2023/11/28 09:49:49;;;;;;;0.90;0.80;;;2.50;99.90;;;;;;5045895;28;20041;-66
2023/11/28 09:52:21;;;;;;;0.88;0.60;;;2.40;99.90;;;;;;5037736;28;20487;-66
2023/11/28 09:54:54;;;;;;;1.38;1.05;;;2.40;99.90;;;;;;5038637;28;20037;-66
2023/11/28 09:57:21;;;;;;;1.30;1.00;;;2.30;99.90;;;;;;5053912;28;20500;-66
2023/11/28 09:59:49;;;;;;;0.77;0.77;;;2.30;99.90;;;;;;5050007;28;20043;-66
2023/11/28 10:02:22;;;;;;;0.80;0.68;;;2.20;99.90;;;;;;5035603;28;20041;-66
2023/11/28 10:04:54;;;;;;;1.42;0.98;;;2.20;99.90;;;;;;5036656;28;20056;-66
2023/11/28 10:07:32;;;;;;;1.10;1.00;;;2.10;99.90;;;;;;5048568;28;20404;-66
2023/11/28 10:10:08;;;;;;;1.42;0.93;;;2.10;99.90;;;;;;5029739;28;20036;-66
2023/11/28 10:12:40;;;;;;;1.10;1.00;;;2.10;99.90;;;;;;5045236;28;20087;-66
2023/11/28 10:15:11;;;;;;;1.10;1.00;;;2.10;99.90;;;;;;5058178;28;20059;-66
2023/11/28 10:17:43;;;;;;;1.30;1.20;;;2.10;99.90;;;;;;5043252;28;20139;-66
2023/11/28 10:20:17;;;;;;;1.20;1.08;;;2.10;99.90;;;;;;5047060;28;20135;-66
2023/11/28 10:22:52;;;;;;;1.48;1.30;;;2.00;99.90;;;;;;5047401;28;20472;-66
2023/11/28 10:25:24;;;;;;;1.50;1.02;;;2.10;99.90;;;;;;5050899;28;20464;-66
2023/11/28 10:28:00;;;;;;;1.30;1.20;;;2.00;99.90;;;;;;5049524;28;20037;-66
2023/11/28 10:30:27;;;;;;;1.42;1.00;;;2.00;99.90;;;;;;5062077;28;20052;-66
2023/11/28 10:32:59;;;;;;;1.08;0.80;;;2.00;99.90;;;;;;5070481;28;20048;-67
2023/11/28 10:35:43;;;;;;;0.85;0.77;;;1.90;99.90;;;;;;5065019;28;20090;-66
2023/11/28 10:38:14;;;;;;;0.60;0.50;;;2.00;99.90;;;;;;5051433;28;20069;-66
2023/11/28 10:40:48;;;;;;;0.75;0.60;;;1.90;99.90;;;;;;5015766;28;20692;-66
2023/11/28 10:43:15;;;;;;;0.70;0.70;;;1.80;99.90;;;;;;5060967;28;20041;-66
2023/11/28 10:45:48;;;;;;;1.02;0.77;;;1.70;99.90;;;;;;5059826;28;20037;-66
2023/11/28 10:48:20;;;;;;;0.97;0.73;;;1.70;99.90;;;;;;5043013;28;20087;-66
2023/11/28 10:50:54;;;;;;;1.05;0.93;;;1.70;99.90;;;;;;5040976;28;20068;-66
2023/11/28 10:53:28;;;;;;;0.90;0.80;;;1.70;99.90;;;;;;5056852;28;20513;-68
2023/11/28 10:56:02;;;;;;;0.90;0.80;;;1.70;99.90;;;;;;5063930;28;20573;-67
2023/11/28 10:58:37;;;;;;;0.73;0.73;;;1.70;99.90;;;;;;5052644;28;20441;-65
2023/11/28 11:01:10;;;;;;;1.08;0.75;;;1.70;99.90;;;;;;5055205;28;20037;-66
2023/11/28 11:03:44;;;;;;;1.30;0.98;;;1.60;99.90;;;;;;5045264;28;20072;-66
2023/11/28 11:06:18;;;;;;;0.98;0.88;;;1.60;99.90;;;;;;5068689;28;20045;-67
2023/11/28 11:08:45;;;;;;;1.70;1.30;;;1.60;99.90;;;;;;5067476;28;20138;-66
2023/11/28 11:11:18;;;;;;;1.92;1.40;;;1.60;99.90;;;;;;5063178;28;20513;-66
2023/11/28 11:14:12;;;;;;;1.58;1.17;;;1.60;99.90;;;;;;5055777;28;20044;-66
2023/11/28 11:16:50;;;;;;;1.38;1.08;;;1.70;99.90;;;;;;5055543;28;20087;-66
2023/11/28 11:19:23;;;;;;;2.60;1.20;;;1.70;99.90;;;;;;5034954;28;20041;-66
2023/11/28 11:22:02;;;;;;;1.35;1.25;;;1.60;99.90;;;;;;5055952;28;20224;-66
2023/11/28 11:24:29;;;;;;;1.70;1.40;;;1.60;99.90;;;;;;5055894;28;20043;-66
2023/11/28 11:27:02;;;;;;;1.40;1.10;;;1.60;99.90;;;;;;5057431;28;20072;-66
2023/11/28 11:29:39;;;;;;;;;;;1.60;99.90;;;;;;5069735;28;20067;-66
2023/11/28 11:32:14;;;;;;;1.08;0.93;;;1.60;99.90;;;;;;5050657;28;20012;-67
2023/11/28 11:34:48;;;;;;;1.65;1.35;;;1.60;99.90;;;;;;5040661;28;20736;-66
2023/11/28 11:37:28;;;;;;;1.42;1.10;;;1.60;99.90;;;;;;5033888;28;20092;-66
2023/11/28 11:39:58;;;;;;;2.63;1.70;;;1.50;99.90;;;;;;5040873;28;20407;-66
2023/11/28 11:42:34;;;;;;;2.10;1.50;;;1.50;99.90;;;;;;5068193;28;20132;-66
2023/11/28 11:45:07;;;;;;;1.50;1.10;;;1.50;99.90;;;;;;5043265;28;20506;-66
2023/11/28 11:47:39;;;;;;;1.00;0.82;;;1.50;99.90;;;;;;5060399;28;20084;-66
2023/11/28 11:50:11;;;;;;;1.33;1.20;;;1.50;99.90;;;;;;5025708;28;20041;-66
2023/11/28 11:52:38;;;;;;;1.20;1.10;;;1.50;99.90;;;;;;5062678;28;20036;-67
2023/11/28 11:55:12;;;;;;;1.10;0.82;;;1.50;99.90;;;;;;5059248;28;20630;-66
2023/11/28 11:57:45;;;;;;;1.00;0.90;;;1.50;99.90;;;;;;5038174;28;20049;-66
2023/11/28 12:00:20;;;;;;;1.10;1.00;;;1.50;99.90;;;;;;5060046;28;20071;-66
2023/11/28 12:02:56;;;;;;;1.05;0.95;;;1.50;99.90;;;;;;5069539;28;20412;-66
2023/11/28 12:05:23;;;;;;;1.42;1.10;;;1.60;99.90;;;;;;5040510;28;20071;-66
2023/11/28 12:07:54;;;;;;;0.90;0.82;;;1.60;99.90;;;;;;5062069;28;20047;-66
2023/11/28 12:10:21;;;;;;;1.05;0.90;;;1.50;99.90;;;;;;5038230;28;20509;-66
2023/11/28 12:12:53;;;;;;;1.33;1.05;;;1.50;99.90;;;;;;5057072;28;20036;-66
2023/11/28 12:15:25;;;;;;;1.88;1.13;;;1.50;99.90;;;;;;5060316;28;20045;-66
2023/11/28 12:18:18;;;;;;;2.30;1.40;;;1.60;99.90;;;;;;5042770;28;20036;-66
2023/11/28 12:20:49;;;;;;;1.58;0.95;;;1.50;99.90;;;;;;5044945;28;20146;-66
2023/11/28 12:23:22;;;;;;;1.40;1.10;;;1.50;99.90;;;;;;5045791;28;20045;-66
2023/11/28 12:25:57;;;;;;;1.20;1.10;;;1.50;99.90;;;;;;5043977;28;20047;-66
2023/11/28 12:28:29;;;;;;;1.33;1.00;;;1.50;99.90;;;;;;5050089;28;20045;-66
2023/11/28 12:31:01;;;;;;;1.30;0.95;;;1.50;99.90;;;;;;5038189;28;20387;-66
2023/11/28 12:33:36;;;;;;;0.80;0.80;;;1.50;99.90;;;;;;5051974;28;20045;-66
2023/11/28 12:36:08;;;;;;;4.47;1.65;;;1.50;99.90;;;;;;5053784;28;20055;-66
2023/11/28 12:38:40;;;;;;;4.25;1.67;;;1.50;99.90;;;;;;5020912;28;20065;-66
2023/11/28 12:41:07;;;;;;;1.95;1.20;;;1.40;99.90;;;;;;5042779;28;20068;-66
2023/11/28 12:43:39;;;;;;;2.80;1.23;;;1.40;99.90;;;;;;5040023;28;20048;-66
2023/11/28 12:46:13;;;;;;;2.30;1.60;;;1.40;99.90;;;;;;5038758;28;20105;-66
2023/11/28 12:48:44;;;;;;;1.47;1.07;;;1.40;99.90;;;;;;5062071;28;20040;-66
2023/11/28 12:51:16;;;;;;;1.65;1.05;;;1.40;99.90;;;;;;5039399;28;20801;-66
2023/11/28 12:53:47;;;;;;;2.08;1.20;;;1.40;99.90;;;;;;5063627;28;20128;-66
2023/11/28 12:56:19;;;;;;;1.08;0.95;;;1.40;99.90;;;;;;5058465;28;20135;-66
2023/11/28 12:58:46;;;;;;;1.38;0.82;;;1.40;99.90;;;;;;5057499;28;20036;-65
2023/11/28 13:01:18;;;;;;;4.45;1.00;;;1.40;99.90;;;;;;5057726;28;20047;-66
2023/11/28 13:03:45;;;;;;;1.25;1.05;;;1.40;99.90;;;;;;5058075;28;20615;-67
2023/11/28 13:06:11;;;;;;;0.80;0.80;;;1.40;99.90;;;;;;5050060;28;20120;-66
2023/11/28 13:08:43;;;;;;;0.88;0.73;;;1.40;99.90;;;;;;5036032;28;20061;-66
2023/11/28 13:11:16;;;;;;;1.10;0.85;;;1.30;99.90;;;;;;5037290;28;20256;-66
2023/11/28 13:13:48;;;;;;;0.95;0.88;;;1.30;99.90;;;;;;5054471;28;20099;-66
2023/11/28 13:16:21;;;;;;;1.10;1.00;;;1.30;99.90;;;;;;5056777;28;20069;-66
2023/11/28 13:18:48;;;;;;;1.20;1.05;;;1.30;99.90;;;;;;5046392;28;20045;-66
2023/11/28 13:21:21;;;;;;;1.17;0.95;;;1.30;99.90;;;;;;5026724;28;20045;-67